Terminal Aerodrome Forecast
Issued by NWS Cleveland, OH

Home | Current Version | Previous Version | Graphics & Text | Print | Product List | Glossary On
Versions: 1 2 3 4 5 6 7 8 9 10 11 12 13 14 15 16 17 18 19 20 21 22 23 24 25 26 27 28 29 30 31
000
FTUS41 KCLE 142000 AAA
TAFCLE
TAF AMD
KCLE 142022Z 1420/1524 24006KT 6SM HZ OVC012
     FM142200 26005KT 5SM HZ OVC010
     FM150200 20003KT 5SM BR OVC008
      TEMPO 1509/1513 3SM BR OVC006
     FM151500 17006KT 5SM HZ OVC012
     FM152000 14006KT P6SM OVC025=

USA.gov is the U.S. government's official web portal to all federal, state and local government web resources and services.